createdAt,value
2022-10-16T00:01:28.607Z,5.40
2022-10-16T00:03:57.236Z,5.17
2022-10-16T00:06:24.620Z,4.83
2022-10-16T00:08:52.009Z,4.90
2022-10-16T00:11:25.040Z,2.13
2022-10-16T00:13:56.014Z,4.27
2022-10-16T00:16:23.356Z,2.83
2022-10-16T00:18:50.505Z,1.63
2022-10-16T00:21:20.876Z,1.00
2022-10-16T00:23:48.036Z,0.90
2022-10-16T00:26:19.838Z,0.80
2022-10-16T00:28:49.421Z,0.80
2022-10-16T00:31:18.429Z,0.80
2022-10-16T00:33:46.317Z,0.80
2022-10-16T00:36:15.803Z,0.80
2022-10-16T00:38:43.198Z,0.90
2022-10-16T00:41:16.160Z,0.80
2022-10-16T00:43:47.521Z,0.70
2022-10-16T00:46:39.068Z,0.90
2022-10-16T00:49:17.236Z,2.60
2022-10-16T00:51:50.893Z,0.87
2022-10-16T00:54:22.721Z,0.90
2022-10-16T00:56:50.843Z,2.30
2022-10-16T00:59:21.888Z,0.87
2022-10-16T01:01:49.384Z,2.63
2022-10-16T01:04:16.678Z,0.70
2022-10-16T01:07:07.032Z,0.87
2022-10-16T01:10:09.074Z,5.40
2022-10-16T01:12:48.827Z,3.17
2022-10-16T01:15:58.929Z,0.70
2022-10-16T01:19:01.521Z,5.20
2022-10-16T01:21:32.875Z,5.70
2022-10-16T01:24:24.478Z,6.20
2022-10-16T01:27:00.181Z,4.80
2022-10-16T01:29:31.265Z,4.53
2022-10-16T01:32:01.700Z,7.20
2022-10-16T01:34:51.481Z,5.70
2022-10-16T01:37:33.499Z,1.57
2022-10-16T01:40:02.244Z,7.23
2022-10-16T01:42:36.867Z,5.50
2022-10-16T01:45:07.722Z,5.43
2022-10-16T01:47:35.296Z,4.50
2022-10-16T01:50:05.938Z,5.70
2022-10-16T01:52:36.212Z,5.23
2022-10-16T01:55:05.745Z,5.37
2022-10-16T01:57:33.833Z,5.77
2022-10-16T02:00:07.850Z,5.70
2022-10-16T02:02:35.305Z,4.20
2022-10-16T02:05:24.408Z,5.63
2022-10-16T02:07:51.743Z,2.87
2022-10-16T02:10:19.503Z,2.13
2022-10-16T02:12:50.996Z,0.90
2022-10-16T02:15:18.476Z,0.90
2022-10-16T02:17:46.247Z,0.80
2022-10-16T02:20:13.508Z,0.90
2022-10-16T02:22:48.186Z,1.13
2022-10-16T02:25:30.316Z,0.83
2022-10-16T02:28:18.914Z,5.80
2022-10-16T02:31:00.094Z,0.70
2022-10-16T02:33:28.758Z,5.07
2022-10-16T02:35:58.388Z,7.83
2022-10-16T02:38:26.546Z,5.53
2022-10-16T02:40:54.018Z,2.73
2022-10-16T02:43:21.183Z,2.07
2022-10-16T02:45:48.415Z,0.90
2022-10-16T02:48:16.183Z,0.90
2022-10-16T02:50:43.433Z,0.80
2022-10-16T02:53:10.608Z,0.93
2022-10-16T02:55:37.945Z,1.73
2022-10-16T02:58:05.011Z,4.93
2022-10-16T03:00:32.077Z,5.30
2022-10-16T03:03:00.395Z,5.63
2022-10-16T03:05:27.488Z,5.33
2022-10-16T03:07:57.358Z,3.73
2022-10-16T03:10:24.736Z,3.23
2022-10-16T03:12:52.243Z,4.87
2022-10-16T03:15:19.348Z,2.33
2022-10-16T03:17:46.936Z,0.73
2022-10-16T03:20:14.498Z,0.80
2022-10-16T03:22:41.629Z,0.83
2022-10-16T03:25:09.159Z,0.90
2022-10-16T03:27:36.526Z,2.40
2022-10-16T03:30:04.180Z,6.20
2022-10-16T03:32:31.319Z,5.03
2022-10-16T03:34:58.430Z,6.83
2022-10-16T03:37:26.101Z,4.93
2022-10-16T03:39:53.667Z,3.23
2022-10-16T03:42:20.900Z,1.70
2022-10-16T03:44:48.464Z,0.70
2022-10-16T03:47:15.706Z,0.77
2022-10-16T03:49:42.845Z,0.80
2022-10-16T03:52:10.323Z,1.00
2022-10-16T03:54:37.372Z,1.70
2022-10-16T03:57:04.445Z,5.73
2022-10-16T03:59:31.830Z,5.53
2022-10-16T04:01:58.920Z,5.90
2022-10-16T04:04:26.151Z,5.70
2022-10-16T04:06:56.200Z,3.63
2022-10-16T04:09:23.297Z,3.17
2022-10-16T04:11:53.443Z,1.63
2022-10-16T04:14:20.562Z,1.67
2022-10-16T04:16:47.820Z,0.93
2022-10-16T04:19:16.155Z,0.90
2022-10-16T04:21:43.373Z,0.90
2022-10-16T04:24:12.049Z,0.90
2022-10-16T04:26:39.327Z,0.90
2022-10-16T04:29:07.268Z,2.87
2022-10-16T04:31:35.050Z,5.40
2022-10-16T04:34:02.278Z,5.70
2022-10-16T04:36:29.510Z,5.43
2022-10-16T04:38:56.776Z,5.40
2022-10-16T04:41:23.944Z,3.43
2022-10-16T04:43:51.118Z,1.77
2022-10-16T04:46:18.521Z,0.83
2022-10-16T04:48:46.217Z,0.80
2022-10-16T04:51:14.812Z,0.73
2022-10-16T04:53:41.995Z,0.70
2022-10-16T04:56:09.170Z,0.70
2022-10-16T04:58:36.469Z,2.40
2022-10-16T05:01:03.647Z,5.73
2022-10-16T05:05:58.089Z,5.33
2022-10-16T05:08:25.248Z,5.70
2022-10-16T05:10:52.562Z,4.37
2022-10-16T05:13:19.642Z,1.80
2022-10-16T05:15:49.679Z,0.77
2022-10-16T05:18:17.479Z,0.90
2022-10-16T05:20:46.100Z,0.80
2022-10-16T05:25:54.718Z,0.60
2022-10-16T05:28:21.800Z,4.40
2022-10-16T05:30:49.076Z,1.67
2022-10-16T05:33:17.217Z,0.80
2022-10-16T05:35:45.165Z,0.80
2022-10-16T05:38:12.498Z,0.80
2022-10-16T05:40:39.609Z,0.80
2022-10-16T05:43:06.696Z,2.80
2022-10-16T05:45:33.838Z,5.53
2022-10-16T05:48:04.055Z,5.90
2022-10-16T05:50:31.187Z,5.67
2022-10-16T05:52:58.316Z,7.90
2022-10-16T05:55:25.364Z,5.27
2022-10-16T05:57:55.112Z,4.33
2022-10-16T06:00:22.204Z,4.43
2022-10-16T06:02:49.365Z,2.47
2022-10-16T06:05:17.158Z,1.00
2022-10-16T06:07:44.421Z,2.07
2022-10-16T06:10:12.546Z,0.80
2022-10-16T06:12:39.718Z,0.80
2022-10-16T06:15:07.079Z,2.30
2022-10-16T06:17:34.098Z,5.60
2022-10-16T06:20:01.172Z,5.80
2022-10-16T06:22:28.245Z,7.40
2022-10-16T06:24:55.337Z,5.53
2022-10-16T06:27:22.763Z,4.33
2022-10-16T06:29:49.944Z,2.10
2022-10-16T06:32:17.226Z,0.90
2022-10-16T06:34:44.491Z,0.90
2022-10-16T06:37:11.622Z,0.90
2022-10-16T06:39:38.678Z,0.90
2022-10-16T06:42:05.825Z,3.33
2022-10-16T06:44:32.892Z,5.13
2022-10-16T06:47:00.434Z,5.43
2022-10-16T06:49:27.485Z,5.53
2022-10-16T06:51:54.455Z,3.57
2022-10-16T06:54:21.591Z,2.27
2022-10-16T06:56:48.649Z,1.53
2022-10-16T06:59:15.862Z,0.80
2022-10-16T07:01:42.873Z,3.63
2022-10-16T07:04:10.077Z,0.90
2022-10-16T07:06:37.225Z,1.70
2022-10-16T07:09:06.442Z,5.50
2022-10-16T07:11:33.801Z,5.53
2022-10-16T07:14:01.174Z,5.70
2022-10-16T07:16:29.961Z,7.03
2022-10-16T07:19:00.372Z,7.63
2022-10-16T07:21:30.710Z,8.13
2022-10-16T07:23:59.845Z,6.57
2022-10-16T07:26:28.515Z,7.60
2022-10-16T07:28:56.134Z,5.43
2022-10-16T07:31:24.374Z,2.93
2022-10-16T07:33:52.615Z,2.30
2022-10-16T07:36:20.945Z,2.30
2022-10-16T07:38:48.730Z,0.83
2022-10-16T07:41:18.583Z,0.80
2022-10-16T07:43:53.656Z,0.77
2022-10-16T07:46:22.134Z,1.63
2022-10-16T07:48:52.442Z,2.00
2022-10-16T07:51:22.104Z,2.47
2022-10-16T07:53:49.363Z,2.17
2022-10-16T07:56:17.673Z,0.90
2022-10-16T07:58:45.320Z,0.80
2022-10-16T08:01:15.551Z,2.13
2022-10-16T08:03:52.237Z,0.90
2022-10-16T08:06:25.034Z,2.13
2022-10-16T08:08:56.006Z,9.60
2022-10-16T08:11:24.030Z,3.10
2022-10-16T08:13:51.187Z,1.70
2022-10-16T08:16:18.832Z,0.73
2022-10-16T08:18:46.110Z,1.07
2022-10-16T08:21:20.321Z,0.80
2022-10-16T08:23:53.039Z,1.40
2022-10-16T08:26:24.242Z,3.23
2022-10-16T08:28:53.045Z,1.77
2022-10-16T08:31:20.544Z,1.67
2022-10-16T08:33:48.586Z,0.80
2022-10-16T08:36:17.282Z,0.80
2022-10-16T08:38:44.989Z,0.70
2022-10-16T08:41:51.518Z,0.90
2022-10-16T08:44:44.455Z,1.00
2022-10-16T08:47:24.556Z,0.87
2022-10-16T08:50:00.963Z,1.73
2022-10-16T08:52:32.498Z,6.57
2022-10-16T08:55:00.093Z,5.23
2022-10-16T08:57:32.572Z,7.33
2022-10-16T09:00:06.273Z,5.17
2022-10-16T09:02:36.758Z,5.47
2022-10-16T09:05:12.698Z,5.30
2022-10-16T09:07:45.723Z,0.77
2022-10-16T09:10:37.279Z,0.80
2022-10-16T09:13:15.236Z,5.13
2022-10-16T09:16:05.650Z,0.80
2022-10-16T09:18:42.577Z,5.50
2022-10-16T09:21:19.895Z,0.70
2022-10-16T09:23:47.574Z,0.80
2022-10-16T09:26:17.690Z,0.70
2022-10-16T09:28:45.299Z,0.83
2022-10-16T09:31:21.206Z,0.80
2022-10-16T09:33:54.025Z,0.80
2022-10-16T09:36:22.246Z,1.43
2022-10-16T09:38:50.878Z,2.07
2022-10-16T09:41:25.598Z,0.83
2022-10-16T09:43:58.224Z,3.93
2022-10-16T09:46:37.127Z,4.70
2022-10-16T09:49:25.256Z,5.60
2022-10-16T09:52:03.706Z,4.97
2022-10-16T09:54:30.816Z,4.63
2022-10-16T09:57:07.019Z,5.23
2022-10-16T09:59:34.199Z,5.00
2022-10-16T10:02:05.881Z,5.00
2022-10-16T10:04:55.513Z,4.93
2022-10-16T10:07:36.465Z,3.80
2022-10-16T10:10:06.744Z,4.97
2022-10-16T10:12:36.837Z,4.93
2022-10-16T10:15:14.335Z,4.83
2022-10-16T10:17:52.324Z,0.80
2022-10-16T10:20:30.551Z,1.93
2022-10-16T10:22:58.039Z,4.67
2022-10-16T10:26:11.104Z,4.40
2022-10-16T10:29:02.711Z,1.47
2022-10-16T10:32:09.634Z,5.03
2022-10-16T10:35:02.747Z,2.40
2022-10-16T10:37:29.828Z,4.93
2022-10-16T10:40:12.882Z,4.63
2022-10-16T10:42:45.229Z,0.73
2022-10-16T10:45:20.165Z,0.70
2022-10-16T10:48:11.954Z,0.83
2022-10-16T10:51:14.832Z,0.70
2022-10-16T10:54:28.433Z,0.70
2022-10-16T10:57:12.016Z,5.20
2022-10-16T10:59:51.289Z,0.80
2022-10-16T11:02:57.490Z,0.80
2022-10-16T11:05:40.299Z,3.27
2022-10-16T11:08:32.393Z,2.20
2022-10-16T11:11:18.787Z,8.73
2022-10-16T11:14:04.837Z,0.70
2022-10-16T11:16:37.697Z,5.90
2022-10-16T11:19:27.341Z,6.33
2022-10-16T11:22:10.641Z,3.13
2022-10-16T11:25:16.628Z,1.97
2022-10-16T11:28:07.733Z,0.83
2022-10-16T11:30:54.988Z,5.60
2022-10-16T11:33:34.485Z,4.80
2022-10-16T11:36:14.288Z,5.50
2022-10-16T11:39:01.451Z,0.87
2022-10-16T11:41:47.576Z,6.87
2022-10-16T11:44:23.728Z,0.70
2022-10-16T11:49:57.618Z,4.90
2022-10-16T11:52:38.488Z,2.17
2022-10-16T11:55:24.838Z,4.67
2022-10-16T11:58:05.432Z,2.90
2022-10-16T12:00:54.838Z,6.10
2022-10-16T12:03:39.802Z,3.67
2022-10-16T12:06:16.433Z,2.60
2022-10-16T12:08:44.719Z,0.80
2022-10-16T12:11:25.294Z,0.97
2022-10-16T12:13:52.535Z,5.37
2022-10-16T12:16:23.482Z,2.23
2022-10-16T12:18:51.256Z,1.93
2022-10-16T12:21:20.368Z,0.70
2022-10-16T12:23:52.782Z,0.90
2022-10-16T12:26:46.797Z,2.13
2022-10-16T12:29:32.601Z,0.93
2022-10-16T12:31:59.794Z,6.03
2022-10-16T12:34:33.984Z,4.97
2022-10-16T12:37:21.997Z,5.33
2022-10-16T12:39:50.310Z,1.43
2022-10-16T12:42:29.569Z,1.00
2022-10-16T12:44:57.348Z,5.07
2022-10-16T12:47:38.291Z,3.30
2022-10-16T12:50:33.992Z,4.90
2022-10-16T12:53:02.396Z,6.10
2022-10-16T12:55:36.067Z,5.50
2022-10-16T12:58:38.734Z,5.30
2022-10-16T13:01:13.026Z,4.53
2022-10-16T13:04:03.611Z,0.87
2022-10-16T13:06:37.343Z,4.93
2022-10-16T13:09:38.494Z,5.43
2022-10-16T13:12:18.125Z,4.03
2022-10-16T13:15:03.011Z,0.93
2022-10-16T13:18:01.996Z,5.53
2022-10-16T13:20:58.722Z,6.10
2022-10-16T13:26:26.296Z,0.80
2022-10-16T13:28:53.456Z,3.87
2022-10-16T13:31:25.254Z,1.73
2022-10-16T13:34:00.446Z,4.87
2022-10-16T13:36:35.709Z,6.20
2022-10-16T13:39:15.903Z,5.03
2022-10-16T13:41:43.184Z,0.77
2022-10-16T13:44:21.822Z,1.00
2022-10-16T13:47:02.994Z,1.17
2022-10-16T13:49:30.038Z,5.17
2022-10-16T13:52:01.015Z,5.23
2022-10-16T13:54:29.929Z,5.03
2022-10-16T13:57:09.114Z,4.83
2022-10-16T13:59:44.382Z,0.80
2022-10-16T14:02:27.756Z,0.80
2022-10-16T14:04:55.975Z,2.60
2022-10-16T14:07:32.352Z,3.93
2022-10-16T14:10:04.019Z,5.03
2022-10-16T14:12:31.494Z,5.23
2022-10-16T14:15:00.708Z,6.83
2022-10-16T14:17:30.306Z,5.77
2022-10-16T14:20:02.525Z,5.53
2022-10-16T14:22:41.183Z,5.37
2022-10-16T14:25:20.349Z,2.10
2022-10-16T14:30:30.338Z,4.70
2022-10-16T14:33:06.633Z,5.63
2022-10-16T14:35:36.783Z,5.13
2022-10-16T14:38:05.434Z,5.33
2022-10-16T14:40:39.315Z,4.97
2022-10-16T14:43:06.968Z,3.80
2022-10-16T14:45:36.122Z,5.00
2022-10-16T14:48:07.980Z,5.60
2022-10-16T14:50:35.010Z,5.13
2022-10-16T14:53:02.229Z,5.90
2022-10-16T14:55:29.431Z,5.87
2022-10-16T14:57:59.664Z,7.97
2022-10-16T15:00:28.131Z,5.13
2022-10-16T15:02:55.239Z,3.00
2022-10-16T15:05:25.820Z,4.57
2022-10-16T15:07:55.822Z,4.27
2022-10-16T15:10:25.178Z,4.10
2022-10-16T15:12:52.425Z,3.10
2022-10-16T15:15:31.893Z,1.90
2022-10-16T15:18:01.557Z,6.63
2022-10-16T15:20:31.614Z,6.83
2022-10-16T15:22:59.018Z,6.67
2022-10-16T15:25:46.533Z,4.60
2022-10-16T15:28:14.801Z,1.00
2022-10-16T15:30:42.853Z,0.87
2022-10-16T15:33:15.591Z,0.80
2022-10-16T15:35:42.885Z,1.03
2022-10-16T15:38:13.876Z,0.80
2022-10-16T15:40:41.584Z,0.83
2022-10-16T15:43:09.932Z,1.37
2022-10-16T15:45:37.374Z,2.40
2022-10-16T15:48:04.929Z,6.27
2022-10-16T15:50:35.732Z,5.40
2022-10-16T15:53:03.051Z,5.40
2022-10-16T15:55:30.897Z,8.60
2022-10-16T15:57:58.062Z,5.63
2022-10-16T16:00:26.739Z,3.23
2022-10-16T16:02:55.071Z,3.63
2022-10-16T16:05:23.540Z,2.30
2022-10-16T16:07:51.213Z,2.53
2022-10-16T16:10:20.791Z,0.70
2022-10-16T16:12:53.171Z,0.80
2022-10-16T16:15:21.672Z,2.50
2022-10-16T16:17:49.376Z,0.90
2022-10-16T16:20:17.017Z,0.93
2022-10-16T16:22:44.325Z,0.80
2022-10-16T16:25:12.146Z,0.80
2022-10-16T16:27:39.932Z,0.60
2022-10-16T16:30:08.512Z,2.50
2022-10-16T16:32:36.134Z,5.00
2022-10-16T16:35:04.264Z,5.80
2022-10-16T16:37:31.367Z,5.73
2022-10-16T16:40:01.509Z,5.53
2022-10-16T16:42:28.916Z,6.80
2022-10-16T16:44:56.418Z,7.27
2022-10-16T16:47:23.755Z,4.33
2022-10-16T16:49:50.863Z,1.67
2022-10-16T16:52:18.273Z,0.80
2022-10-16T16:54:52.611Z,0.80
2022-10-16T16:57:21.185Z,1.90
2022-10-16T16:59:51.258Z,2.00
2022-10-16T17:02:18.986Z,0.80
2022-10-16T17:04:47.678Z,0.70
2022-10-16T17:07:14.906Z,0.70
2022-10-16T17:09:42.195Z,1.00
2022-10-16T17:12:09.308Z,0.90
2022-10-16T17:14:36.397Z,3.53
2022-10-16T17:17:03.413Z,6.40
2022-10-16T17:19:30.498Z,6.10
2022-10-16T17:21:57.717Z,8.27
2022-10-16T17:24:25.133Z,2.70
2022-10-16T17:26:52.251Z,3.07
2022-10-16T17:29:19.706Z,1.57
2022-10-16T17:31:50.047Z,0.70
2022-10-16T17:34:17.896Z,0.93
2022-10-16T17:36:47.363Z,0.87
2022-10-16T17:39:19.770Z,0.80
2022-10-16T17:41:48.217Z,0.80
2022-10-16T17:44:20.255Z,0.90
2022-10-16T17:46:49.168Z,0.70
2022-10-16T17:49:16.769Z,0.80
2022-10-16T17:51:44.328Z,1.17
2022-10-16T17:54:11.972Z,0.90
2022-10-16T17:56:41.903Z,1.27
2022-10-16T17:59:09.911Z,1.30
2022-10-16T18:01:41.913Z,3.27
2022-10-16T18:04:13.211Z,1.30
2022-10-16T18:06:41.771Z,0.93
2022-10-16T18:09:09.737Z,1.53
2022-10-16T18:11:37.679Z,3.03
2022-10-16T18:14:05.331Z,6.00
2022-10-16T18:16:33.192Z,6.20
2022-10-16T18:19:00.465Z,6.80
2022-10-16T18:21:28.903Z,5.43
2022-10-16T18:23:56.565Z,5.97
2022-10-16T18:26:24.517Z,4.70
2022-10-16T18:28:56.672Z,1.67
2022-10-16T18:31:26.504Z,4.63
2022-10-16T18:33:54.111Z,4.97
2022-10-16T18:36:24.471Z,1.87
2022-10-16T18:38:51.666Z,2.33
2022-10-16T18:41:19.482Z,0.80
2022-10-16T18:43:46.890Z,1.23
2022-10-16T18:46:19.923Z,0.83
2022-10-16T18:48:49.471Z,1.30
2022-10-16T18:51:24.279Z,0.90
2022-10-16T18:53:54.148Z,2.27
2022-10-16T18:56:23.523Z,1.90
2022-10-16T18:58:51.092Z,3.60
2022-10-16T19:01:23.278Z,1.00
2022-10-16T19:03:58.196Z,1.97
2022-10-16T19:06:26.285Z,4.93
2022-10-16T19:08:54.572Z,4.87
2022-10-16T19:11:23.646Z,1.80
2022-10-16T19:13:51.337Z,2.63
2022-10-16T19:16:21.802Z,1.13
2022-10-16T19:18:51.145Z,1.57
2022-10-16T19:21:18.904Z,0.77
2022-10-16T19:23:47.182Z,1.00
2022-10-16T19:26:16.823Z,0.77
2022-10-16T19:28:44.541Z,0.60
2022-10-16T19:31:14.271Z,1.00
2022-10-16T19:33:41.856Z,0.70
2022-10-16T19:36:15.541Z,1.83
2022-10-16T19:38:43.203Z,0.70
2022-10-16T19:41:18.222Z,1.10
2022-10-16T19:43:46.644Z,0.90
2022-10-16T19:46:16.303Z,0.97
2022-10-16T19:48:43.677Z,0.80
2022-10-16T19:51:15.754Z,1.00
2022-10-16T19:53:43.007Z,1.67
2022-10-16T19:56:18.288Z,0.80
2022-10-16T19:58:46.431Z,0.70
2022-10-16T20:01:38.209Z,1.00
2022-10-16T20:04:05.747Z,5.90
2022-10-16T20:06:32.811Z,6.10
2022-10-16T20:09:00.012Z,6.00
2022-10-16T20:11:33.510Z,8.30
2022-10-16T20:14:01.685Z,5.90
2022-10-16T20:16:30.504Z,6.53
2022-10-16T20:18:59.462Z,5.93
2022-10-16T20:21:29.095Z,5.33
2022-10-16T20:23:56.968Z,5.90
2022-10-16T20:26:26.203Z,3.90
2022-10-16T20:28:57.367Z,5.23
2022-10-16T20:31:27.470Z,3.43
2022-10-16T20:33:56.221Z,3.57
2022-10-16T20:36:25.472Z,4.67
2022-10-16T20:38:53.167Z,3.87
2022-10-16T20:41:20.811Z,2.40
2022-10-16T20:43:49.360Z,1.00
2022-10-16T20:46:23.922Z,0.70
2022-10-16T20:48:51.873Z,2.27
2022-10-16T20:51:30.274Z,0.87
2022-10-16T20:54:02.507Z,8.37
2022-10-16T20:56:33.981Z,7.20
2022-10-16T20:59:01.096Z,5.90
2022-10-16T21:01:32.287Z,8.03
2022-10-16T21:04:02.181Z,7.53
2022-10-16T21:06:31.530Z,8.20
2022-10-16T21:08:59.920Z,6.90
2022-10-16T21:11:28.303Z,7.27
2022-10-16T21:13:57.513Z,5.47
2022-10-16T21:16:25.223Z,3.27
2022-10-16T21:18:53.666Z,3.57
2022-10-16T21:21:31.028Z,1.90
2022-10-16T21:23:59.149Z,7.07
2022-10-16T21:26:26.974Z,7.33
2022-10-16T21:29:00.516Z,4.20
2022-10-16T21:31:27.730Z,7.67
2022-10-16T21:33:55.811Z,2.77
2022-10-16T21:36:28.008Z,5.80
2022-10-16T21:38:58.293Z,4.13
2022-10-16T21:41:29.358Z,4.40
2022-10-16T21:43:57.664Z,8.13
2022-10-16T21:46:30.831Z,2.70
2022-10-16T21:48:59.822Z,7.80
2022-10-16T21:51:28.830Z,9.17
2022-10-16T21:53:56.437Z,8.60
2022-10-16T21:56:23.704Z,4.67
2022-10-16T21:58:51.914Z,2.80
2022-10-16T22:01:24.518Z,1.00
2022-10-16T22:03:52.185Z,1.77
2022-10-16T22:08:51.138Z,1.27
2022-10-16T22:11:22.352Z,0.90
2022-10-16T22:13:54.149Z,2.73
2022-10-16T22:16:25.763Z,4.53
2022-10-16T22:18:54.703Z,5.60
2022-10-16T22:21:22.317Z,1.70
2022-10-16T22:23:49.530Z,1.43
2022-10-16T22:26:18.225Z,0.80
2022-10-16T22:28:45.475Z,0.90
2022-10-16T22:31:15.018Z,0.77
2022-10-16T22:33:44.864Z,1.00
2022-10-16T22:36:13.479Z,1.00
2022-10-16T22:38:40.541Z,1.03
2022-10-16T22:41:10.371Z,3.07
2022-10-16T22:43:44.242Z,3.43
2022-10-16T22:46:17.650Z,0.70
2022-10-16T22:48:44.979Z,1.00
2022-10-16T22:51:16.782Z,0.93
2022-10-16T22:53:46.371Z,1.83
2022-10-16T22:56:16.007Z,0.90
2022-10-16T22:58:43.684Z,0.90
2022-10-16T23:01:32.084Z,0.90
2022-10-16T23:04:02.617Z,7.73
2022-10-16T23:06:30.248Z,7.00
2022-10-16T23:08:59.493Z,8.67
2022-10-16T23:11:28.242Z,5.53
2022-10-16T23:13:55.895Z,4.40
2022-10-16T23:16:23.900Z,5.60
2022-10-16T23:18:51.326Z,3.00
2022-10-16T23:21:24.081Z,1.77
2022-10-16T23:23:52.697Z,2.30
2022-10-16T23:26:22.615Z,1.90
2022-10-16T23:28:50.366Z,2.20
2022-10-16T23:31:18.420Z,1.10
2022-10-16T23:33:46.406Z,1.00
2022-10-16T23:36:19.442Z,1.00
2022-10-16T23:38:47.930Z,0.87
2022-10-16T23:41:18.839Z,1.87
2022-10-16T23:43:47.220Z,0.97
2022-10-16T23:46:15.588Z,1.00
2022-10-16T23:48:44.267Z,1.00
2022-10-16T23:51:12.129Z,1.00
2022-10-16T23:53:39.521Z,1.67
2022-10-16T23:56:06.928Z,4.30
2022-10-16T23:58:34.280Z,7.13
